Timeline UpdatesTrip UpdatesNews PostsPvt PostsTravel TipsAdmin PostsConv PostsFollowed PostsChat RequestsBlog PostsPNR Posts

Disclaimer
Search
 
 
Sat Apr 19, 2014 07:29:30 ISTHomeTrainsΣChainsAtlasPNRForumGalleryNewsFAQTripsMembersLoginFeedback
No Recent News for this Train
Other Trains in the News **new
Latest...
.
Sat Oct 19, 2013 (10:20AM)
⇐ Return Journey: Train# 12512

12511/Raptisagar SF Express

Nov 01 2013 (7:36AM)
Change Departure Station:
Change Arrival Station:
Post a Train Travel TipPost a Train Travel Tip **new
Post a Comment/Question/Picture/VideoPost a Comment/Question/Picture/Video
Pantry/Catering
✓ Pantry Car Avbl
✓ Catering Avbl
Loco/Rake Reversals
MAS/Chennai Central (12); LJN/Lucknow Junction (6); SRR/Shoranur Junction (7);
RSA - Rake Sharing
12511/12512/12589/12590/12591/12592
Rake/Coach Composition
Loco- SLR-UR-UR-A1-B4-B3-B2-B1-PC-S12-S11-S10-S9-S8-S7-S6-S5-S4-S3-S2-S1-UR-UR-SLR. ; 2AC-1, 3AC-4, PC-1, SL-12, UR-4, SLR-2= 24 COACHES.; B4 added as per http://indiarailinfo.com/pnr/post/635962
Loco
#WDM 3A GondaTill Jhansi . #WAP 4 ED/AJJ/RPM
News    PNR    Forum    Time-Table    Availability    Fare Chart    Map    Arr/Dep History    Trips    Gallery    ΣChains    X/O    Timeline    
Travel Time: 52h 13m    45 halts    Distance: 2952 km    Avg Speed: 56 km/hr
Type: SuperFast
Zone: NER/North Eastern
Departs @ 06:35 (Avg 1m late)
Platform# 9
S   TF 
Gorakhpur Junction/GKP 
Arrives @ 10:48 +2 nights (Avg 49m late)
Platform# 1
S T   S
Wadakkanchery/WKI 

45 halts. 459 intermediate Stations between Gorakhpur Junction and Wadakkanchery

Show ALL intermediate Stations  Show Old Time-Table

#CodeStation NameX/OArrivesAvgDepartsAvgHaltPFDay#KmSpeedElevZoneAddress
1GKP»Gorakhpur Junction (10)»  -06:35+1910.05784mNERGorakhpur 273001, Uttar Pradesh
2KLDKhalilabad (3)  07:11+1007:13+102m1133.96686mNERKhalilabad- 272175, Uttar Pradesh
3BSTBasti (4)  07:40+1407:45+145m1163.57390mNERBasti 272001, Uttar Pradesh
4MURMankapur Junction (5)O  08:35+1008:37+102m31124.073104mNERDistrict Gonda, Uttar Pradesh
5GDGonda Junction (3)  09:00+1409:05+145m11151.965110mNERGonda 271001, Uttar Pradesh
6BBKBarabanki Junction (4)  10:27+710:29+82m11241.255122mNRPin-225001, Uttar Pradesh
7BNZBadshahnagar (2)  10:56+1110:58+112m11265.821116mNERLucknow, Uttar Pradesh
8LJNLucknow Junction (6)X11:30+611:50+620m21276.863126mNERLucknow, Uttar Pradesh
9ONUnnao Junction (5)X  12:41+1512:43+152m21330.731129mNRUnnao, Uttar Pradesh
10CNBKanpur Central (10)  13:17+2613:22+305m41348.164128mNCRKanpur, Uttar Pradesh
11PHNPokhrayan (2)  14:17+5214:19+522m11406.680133mNCRPukhrayan, Uttar Pradesh
12ORAIOrai (3)  14:55+1:0615:00+1:075m21454.465139mNCROrai(05162-252206), Uttar Pradesh
13JHSJhansi Junction (7)X16:45+1:1017:00+1:1915m21568.387259mNCRJhansi, Uttar Pradesh
14LARLalitpur (3)  18:02+1:3318:04+1:332m11658.767373mNCRLalitpur, Uttar Pradesh
15BPLBhopal Junction (6)X  21:05+1:2221:15+1:1910m11860.252497mWCRBhopal, Madhya Pradesh
16ETItarsi Junction (7)  23:00+1:3023:05+1:325m21951.968329mWCRItarsi 461111, Madhya Pradesh
17GDYAGhoradongri (3)  00:07+1:3800:09+1:382m--21022.249410mCRBetul, Madhya Pradesh
18BZUBetul (3)X  00:53+1:4400:55+1:442m--21058.157644mCRBetul, Madhya Pradesh
19AMLAAmla Junction (5)XO  01:19+1:4201:22+1:413m--21081.063733mCRAmla Distt. Betul, Madhya Pradesh
20PARPandhurna (2)X  02:23+1:4402:25+1:452m--21144.760481mCRDistt: Chhindwara, Madhya Pradesh
21NGPNagpur Junction (9)X  04:10+1:3204:20+1:3310m221249.079314mCRNagpur 440001, Maharashtra
22SEGMSewagram Junction (5)  05:18+1:4205:20+1:422m--21325.271264mCRWardha, Maharashtra
23HGTHinganghatX  05:48+1:4205:50+1:432m--21358.378228mCRHinganghat, Maharashtra
24CDChandrapur Maharashtra  06:56+1:4506:58+1:452m--21443.812194mCRChandrapur 442401, Maharashtra
25BPQBalharshah Junction (5)XO08:05+1:0908:35+5730m321457.685188mCRBallarpur. Ph : 07172 - 240341, Maharashtra
26SKZRSirpur Kaghaznagar (3)XO  09:24+1:1009:26+1:122m221527.364181mSCRKaghaznagar, Andhra Pradesh
27BPABellampalli (3)  10:02+1:0910:04+1:082m221565.885205mSCRBelampalli Tel:.08735 223298, Andhra Pradesh
28MCIManchiryal (3)O  10:18+1:1410:20+1:142m221585.7103159mSCRMancherial. Ph : 08736 - 254445, Andhra Pradesh
29RDMRamagundam (3)X  10:28+1:2510:30+1:252m221599.465170mSCRKarimnagar Dist. Ph : 08728 - 255237, Andhra Pradesh
30WLWarangal (3)  12:03+1:3612:05+1:382m121700.572271mSCRWarangal., Andhra Pradesh
31KMTKhammam (2)X  13:35+1:1813:37+1:182m121808.145118mSCRKhammam 507001, Andhra Pradesh
32BZAVijayawada Junction (10)X  15:50+1:1416:05+1:1415m--21908.57424mSCRVijayawada 520001, Andhra Pradesh
33CLXChirala (4)X  17:17+1:2717:19+1:272m--21997.4698mSCRChirala, Andhra Pradesh
34OGLOngole (3)  18:02+1:2318:04+1:242m322046.89312mSCROngole ph.no . 08592-280202, Andhra Pradesh
35NLRNellore (4)X  19:19+5419:20+531m322163.52521mSCRNellore, Andhra Pradesh
36GDRGudur Junction (3)  20:53+5220:55+502m122202.05719mSCRGudur, Andhra Pradesh
37MASChennai Central (12)X23:20+4523:45+4525m622339.4659mSRChennai 600003, Tamil Nadu
38KPDKatpadi Junction (5)X  01:45+4101:50+395m132468.859213mSRVellore 632007. Phone No: 0416-2642628, Tamil Nadu
39JTJJolarpettai Junction (5)X  03:15+3103:20+325m--32552.785405mSRJolarpettai jtn. Ph No.04179-241221, Tamil Nadu
40SASalem Junction (6)X  04:45+4504:50+465m--32672.849283mSRSalem, Tamil Nadu
41EDErode Junction (4)X  06:05+3106:15+4210m132734.670175mSRErode ph.no: 0424-2256111, Tamil Nadu
42TUPTiruppur (2)X  06:58+4107:00+412m132784.561305mSRTiruppur. Ph:0421-2200450, Tamil Nadu
43CBECoimbatore Main Junction (6)X  07:50+3807:55+385m132835.148411mSRCoimbatore 641001, Tamil Nadu
44PGTPalakkad Junction (4)XO  09:05+3609:10+375m232890.86784mSRPalghat Tel: 0491 2555231, Kerala
45OTPOttappalam (2)X  09:38+3709:40+372m132922.31930mSROttapalam, Kerala
46SRRShoranur Junction (7)X10:20+2810:30+4110m532935.15526mSRShoranur ph.no 0466-2222913, Kerala
47WKI•Wadakkanchery (2)•X  10:48+4910:50+492m132951.73640mSRWadackanchery, Kerala
48TCRThrissur (4)  11:17+4311:20+443m132968.1536mSRThrissur Tel: 0487 2423150, Kerala
49IJKIrinjalakkuda (2)  11:47+4111:48+411m--32991.87718mSRKalletumkara, Kerala
50CKIChalakkudy (3)X  11:53+4311:55+422m132998.3709mSRPh: 0480- 2701368, Kerala
51AFKAngamaly for Kalady (3)  12:08+4712:10+472m--33013.55516mSRPhone: 0484-2452340, Kerala
52AWYAluva (3)  12:20+4912:23+483m133022.73212mSRPh: 0484-2624141, Kerala
53ERNErnakulam Town (North) (2)X  12:55+3812:57+382m233039.5129mSRTel: 0484 2395198, Kerala
54ERSErnakulam Junction (South) (6)  13:10+3513:15+385m433042.1473mSRErnakulam 682016, Kerala
55SRTLCherthala (3)  13:58+4414:00+452m233075.5457mSRPh: 0478- 2812500, Kerala
56ALLPAlappuzha (3)  14:32+3814:35+383m133099.6568mSRPh:0477-2253965, Kerala
57AMPAAmbalappuzha (1)  14:48+3914:50+402m133111.8606mSRph 0477-2272620, Kerala
58HADHarippad (2)  15:08+4115:10+412m--33129.7617mSRHaripad 0479-2412714, Kerala
59KYJKayamkulam Junction (5)  15:23+4415:25+442m233143.05411mSRAlappuzha Ph;0479-2442042, Kerala
60QLNKollam Junction (6)  16:10+3716:15+375m133183.85216mSRKollam 0474-2746194, Kerala
61TVCTrivandrum Central (5)  17:30+33-133248.4-12mSRPh: 0471-2321622, Kerala
Scroll to Top
Scroll to Bottom